Terminal Aerodrome Forecast
Issued by NWS

Home | Current Version | Previous Version | Text Only | Print | Product List | Glossary On
Versions: 1 2 3 4 5 6 7 8 9 10 11 12 13 14 15 16
377
FTUS46 KMTR 221748
TAFOAK
TAF
KOAK 221748Z 2218/2324 29011KT P6SM FEW030 FEW050
     FM222000 28017G21KT P6SM VCSH FEW020 SCT050
     FM222300 27028G32KT P6SM VCSH FEW025 BKN040
     FM230300 28020G27KT P6SM FEW040
     FM230700 28011KT P6SM FEW030
     FM231500 33008KT P6SM SCT030=

USA.gov is the U.S. government's official web portal to all federal, state and local government web resources and services.